Time;durP1;ratioP1;P1;durP2;ratioP2;P2;SDS_P1;SDS_P2;PMS_P1;PMS_P2;Temp;Humidity;BMP_temperature;BMP_pressure;BME280_temperature;BME280_humidity;BME280_pressure;Samples;Min_cycle;Max_cycle;Signal;HPM_P1;HPM_P2
2022/06/11 00:07:59;;;;;;;9.47;4.10;;;;;;;14.53;61.42;100748.50;30967870;28;96762;-70
2022/06/11 00:23:00;;;;;;;10.50;4.88;;;;;;;14.21;62.05;100758.50;30966214;28;97445;-66
2022/06/11 00:38:01;;;;;;;8.40;4.03;;;;;;;13.88;63.13;100761.44;30884992;28;96839;-65
2022/06/11 00:53:01;;;;;;;9.43;4.30;;;;;;;13.65;64.03;100756.06;30851264;28;96767;-65
2022/06/11 01:08:24;;;;;;;9.55;4.30;;;;;;;13.51;64.92;100755.78;30859197;28;96826;-66
2022/06/11 01:23:31;;;;;;;8.70;4.53;;;;;;;13.38;65.48;100752.84;30868805;28;97463;-70
2022/06/11 01:38:43;;;;;;;6.50;4.70;;;;;;;13.26;66.11;100757.72;30867977;28;96817;-76
2022/06/11 01:53:43;;;;;;;9.00;4.63;;;;;;;13.14;66.83;100759.13;30866756;28;97197;-66
2022/06/11 02:08:46;;;;;;;8.30;4.78;;;;;;;12.95;67.36;100745.13;30864476;28;96651;-77
2022/06/11 02:24:00;;;;;;;8.47;4.60;;;;;;;12.65;68.14;100750.22;30861653;28;97369;-67
2022/06/11 02:39:04;;;;;;;10.23;5.47;;;;;;;12.55;68.92;100760.28;30861793;28;96972;-67
2022/06/11 02:54:04;;;;;;;29.77;7.73;;;;;;;12.50;69.58;100779.47;30860275;28;96737;-65
2022/06/11 03:09:05;;;;;;;20.67;6.18;;;;;;;12.49;69.87;100782.31;30858373;28;97342;-70
2022/06/11 03:24:06;;;;;;;10.77;5.13;;;;;;;12.62;70.29;100789.84;30856691;28;97003;-67
2022/06/11 03:39:08;;;;;;;8.63;4.83;;;;;;;12.73;69.98;100810.88;30854492;28;96786;-65
2022/06/11 03:54:08;;;;;;;8.43;5.40;;;;;;;13.05;69.60;100814.47;30851981;28;97806;-65
2022/06/11 04:09:16;;;;;;;10.25;6.47;;;;;;;13.29;69.00;100812.75;30850502;28;96955;-65
2022/06/11 04:24:17;;;;;;;10.50;5.80;;;;;;;13.74;68.58;100821.94;30849776;28;96829;-67
2022/06/11 04:39:20;;;;;;;9.87;6.17;;;;;;;14.32;67.92;100816.19;30854216;28;96705;-66
2022/06/11 04:54:20;;;;;;;8.37;5.40;;;;;;;14.91;67.09;100820.06;30870180;28;96721;-67
2022/06/11 05:09:23;;;;;;;7.97;5.00;;;;;;;15.59;65.14;100820.78;30868575;28;96740;-65
2022/06/11 05:24:24;;;;;;;7.53;5.37;;;;;;;16.20;63.08;100819.63;30865347;28;98315;-65
2022/06/11 05:39:26;;;;;;;8.15;4.13;;;;;;;16.84;61.82;100836.69;30865665;28;97317;-65
2022/06/11 05:54:30;;;;;;;6.40;4.40;;;;;;;17.55;60.38;100833.84;30862979;28;97061;-65
2022/06/11 06:09:31;;;;;;;7.17;4.93;;;;;;;18.19;59.10;100844.41;30862185;28;97379;-65
2022/06/11 06:24:33;;;;;;;6.85;3.10;;;;;;;18.88;57.24;100855.91;30860032;28;97083;-66
2022/06/11 06:39:33;;;;;;;3.97;2.63;;;;;;;19.30;55.17;100861.03;30859732;28;96773;-70
2022/06/11 06:54:34;;;;;;;5.05;2.90;;;;;;;19.79;54.64;100859.59;30855605;28;96791;-66
2022/06/11 07:09:34;;;;;;;3.67;2.50;;;;;;;20.57;51.63;100866.66;30855440;28;97451;-68
2022/06/11 07:24:37;;;;;;;3.50;2.17;;;;;;;20.93;50.90;100862.41;30855259;28;97328;-67
2022/06/11 07:39:38;;;;;;;2.77;1.87;;;;;;;21.81;47.33;100854.19;30975011;28;97054;-66
2022/06/11 07:54:38;;;;;;;2.97;1.43;;;;;;;22.96;44.04;100863.09;30972443;28;96819;-75
2022/06/11 08:09:38;;;;;;;3.70;1.50;;;;;;;24.11;41.16;100850.78;30973641;28;97171;-66
2022/06/11 08:24:38;;;;;;;2.00;1.67;;;;;;;25.36;38.51;100859.84;30988690;28;97415;-67
2022/06/11 08:39:39;;;;;;;2.90;1.30;;;;;;;26.05;36.77;100847.56;30984953;28;96953;-66
2022/06/11 08:54:42;;;;;;;3.42;1.65;;;;;;;27.00;33.60;100836.06;30985322;28;97120;-66
2022/06/11 09:10:07;;;;;;;4.67;2.00;;;;;;;27.96;31.38;100838.63;30983710;28;97091;-74
2022/06/11 09:25:13;;;;;;;6.20;2.10;;;;;;;28.26;30.48;100824.16;30981155;28;97672;-68
2022/06/11 09:40:25;;;;;;;4.07;1.70;;;;;;;29.22;29.67;100815.22;30980222;28;97801;-65
2022/06/11 09:55:54;;;;;;;7.27;1.70;;;;;;;29.70;27.39;100796.38;30975911;28;97388;-65
2022/06/11 10:10:56;;;;;;;2.27;1.50;;;;;;;30.31;26.72;100791.53;30920926;28;97062;-64
2022/06/11 10:26:25;;;;;;;6.10;2.07;;;;;;;30.48;25.39;100798.56;30858769;28;96814;-67
2022/06/11 10:41:41;;;;;;;4.10;1.03;;;;;;;30.63;24.24;100781.09;30859083;28;98362;-65
2022/06/11 10:56:48;;;;;;;2.57;1.20;;;;;;;31.00;23.88;100774.91;30859896;28;96770;-71
2022/06/11 11:11:55;;;;;;;3.97;1.23;;;;;;;32.24;22.76;100759.38;30857215;28;96778;-70
2022/06/11 11:27:00;;;;;;;4.47;0.90;;;;;;;32.96;21.51;100740.63;30856573;28;97277;-74
2022/06/11 11:42:06;;;;;;;1.70;0.93;;;;;;;31.97;22.22;100743.53;30854866;28;96638;-66
2022/06/11 11:57:14;;;;;;;4.70;1.37;;;;;;;31.14;23.00;100743.91;30853815;28;96786;-73
2022/06/11 12:12:29;;;;;;;2.10;1.00;;;;;;;32.01;22.68;100733.56;30852552;28;97713;-70
2022/06/11 12:27:39;;;;;;;2.10;0.83;;;;;;;32.19;22.14;100710.69;30850761;28;96974;-70
2022/06/11 12:43:19;;;;;;;4.27;1.30;;;;;;;30.96;22.84;100721.59;30850218;28;97330;-64
2022/06/11 12:58:35;;;;;;;3.20;1.10;;;;;;;31.08;22.15;100707.41;30850864;28;96699;-69
2022/06/11 13:14:05;;;;;;;3.60;0.90;;;;;;;31.43;22.19;100702.50;30869032;28;97476;-67
2022/06/11 13:29:11;;;;;;;13.73;8.80;;;;;;;30.51;22.89;100685.25;30867349;28;97076;-68
2022/06/11 13:44:40;;;;;;;2.80;1.00;;;;;;;29.96;23.47;100680.84;30866000;28;97373;-64
2022/06/11 13:59:46;;;;;;;2.10;1.20;;;;;;;29.84;24.08;100669.41;30865064;28;96860;-67
2022/06/11 14:15:20;;;;;;;4.87;1.50;;;;;;;30.37;23.41;100666.72;30865218;28;96829;-73
2022/06/11 14:30:24;;;;;;;4.67;1.23;;;;;;;30.29;23.95;100650.03;30862152;28;96725;-65
2022/06/11 14:45:36;;;;;;;3.50;1.27;;;;;;;29.26;24.40;100635.28;30860644;28;96938;-65
2022/06/11 15:00:48;;;;;;;2.80;1.13;;;;;;;28.85;24.74;100638.25;30859150;28;97054;-64
2022/06/11 15:15:58;;;;;;;3.27;1.27;;;;;;;28.65;25.16;100618.06;30857135;28;96843;-69
2022/06/11 15:31:05;;;;;;;5.83;1.33;;;;;;;28.17;25.91;100615.75;30856091;28;97208;-66
2022/06/11 15:46:29;;;;;;;3.40;1.27;;;;;;;28.03;26.30;100604.56;30854675;28;97254;-67
2022/06/11 16:01:30;;;;;;;3.50;1.30;;;;;;;27.88;26.57;100603.72;30854600;28;97551;-66
2022/06/11 16:16:53;;;;;;;2.95;1.33;;;;;;;27.77;26.99;100598.25;30851400;28;97402;-66
2022/06/11 16:31:54;;;;;;;3.70;1.57;;;;;;;27.68;27.10;100589.78;30850959;28;96779;-66
2022/06/11 16:47:00;;;;;;;5.53;1.40;;;;;;;27.58;27.73;100595.25;30869562;28;96717;-69
2022/06/11 17:17:23;;;;;;;3.80;1.60;;;;;;;27.08;28.33;100589.47;30867952;28;97101;-66
2022/06/11 17:32:24;;;;;;;4.87;1.77;;;;;;;26.73;29.19;100584.75;30866189;28;96835;-66
2022/06/11 17:47:26;;;;;;;2.90;1.80;;;;;;;26.12;29.89;100595.13;30863824;28;97591;-65
2022/06/11 18:02:29;;;;;;;2.80;1.80;;;;;;;25.48;30.87;100599.56;30864667;28;97131;-67
2022/06/11 18:17:30;;;;;;;6.30;2.20;;;;;;;24.80;32.00;100610.03;30862008;28;97007;-70
2022/06/11 18:32:30;;;;;;;4.57;1.90;;;;;;;24.19;33.09;100624.47;30860576;28;96860;-66
2022/06/11 18:47:31;;;;;;;5.28;2.10;;;;;;;23.82;34.31;100627.69;30857187;28;97124;-69
2022/06/11 19:02:32;;;;;;;7.23;2.80;;;;;;;23.40;35.17;100647.13;30856454;28;97457;-71
2022/06/11 19:17:32;;;;;;;;;;;;;;;22.92;36.67;100655.47;30856772;28;96837;-72
2022/06/11 19:32:33;;;;;;;3.50;2.30;;;;;;;22.80;37.08;100663.63;30856624;28;96877;-64
2022/06/11 19:47:34;;;;;;;12.17;4.83;;;;;;;22.34;38.53;100672.66;30852700;28;96790;-70
2022/06/11 20:02:35;;;;;;;10.15;4.05;;;;;;;21.62;40.43;100671.72;30851994;28;97828;-71
2022/06/11 20:17:37;;;;;;;7.60;4.17;;;;;;;21.04;42.20;100686.69;30851324;28;97387;-69
2022/06/11 20:32:38;;;;;;;10.63;5.40;;;;;;;20.63;43.88;100697.94;30851136;28;96753;-64
2022/06/11 20:47:39;;;;;;;9.60;4.68;;;;;;;20.35;45.39;100697.59;30851355;28;97455;-65
2022/06/11 21:02:39;;;;;;;;;;;;;;;19.97;47.00;100690.44;30851141;28;96858;-64
2022/06/11 21:17:42;;;;;;;11.00;9.02;;;;;;;19.66;48.11;100700.22;30849929;28;96762;-66
2022/06/11 21:32:43;;;;;;;7.83;5.03;;;;;;;19.35;49.15;100699.97;30866410;28;96612;-65
2022/06/11 21:47:45;;;;;;;12.07;7.38;;;;;;;18.94;51.10;100707.44;30866679;28;97056;-65
2022/06/11 22:02:45;;;;;;;11.10;5.87;;;;;;;18.68;52.51;100692.09;30866578;28;97522;-70
2022/06/11 22:17:46;;;;;;;8.30;5.38;;;;;;;18.34;53.94;100704.00;30863673;28;96743;-69
2022/06/11 22:32:47;;;;;;;11.27;5.95;;;;;;;17.97;55.14;100701.72;30862770;28;96859;-71
2022/06/11 22:47:47;;;;;;;8.60;6.10;;;;;;;17.35;56.58;100695.59;30862583;28;97013;-65
2022/06/11 23:02:48;;;;;;;8.32;5.60;;;;;;;17.02;57.98;100693.59;30861165;28;97175;-64
2022/06/11 23:17:49;;;;;;;10.50;5.95;;;;;;;16.75;59.24;100690.75;30857934;28;98394;-69
2022/06/11 23:32:54;;;;;;;10.25;5.97;;;;;;;16.61;59.91;100687.16;30857923;28;96700;-65
2022/06/11 23:47:54;;;;;;;11.63;6.43;;;;;;;16.40;60.96;100690.72;30856602;28;96830;-65
